Time;durP1;ratioP1;P1;durP2;ratioP2;P2;SDS_P1;SDS_P2;PMS_P1;PMS_P2;Temp;Humidity;BMP_temperature;BMP_pressure;BME280_temperature;BME280_humidity;BME280_pressure;Samples;Min_cycle;Max_cycle;Signal;HPM_P1;HPM_P2
2024/01/14 00:02:05;;;;;;;;;73.75;54.25;;;;;-144.62;100.00;60556.56;5034352;28;45296;-79
2024/01/14 00:04:30;;;;;;;;;73.50;54.75;;;;;-144.62;100.00;60556.56;5035846;28;45341;-80
2024/01/14 00:06:55;;;;;;;;;73.25;54.75;;;;;-144.62;100.00;60556.56;5036422;27;45417;-79
2024/01/14 00:09:21;;;;;;;;;74.50;55.75;;;;;-144.62;100.00;60556.56;5037422;27;45292;-79
2024/01/14 00:11:46;;;;;;;;;71.00;50.00;;;;;-144.62;100.00;60556.56;5036240;28;45510;-79
2024/01/14 00:14:12;;;;;;;;;74.00;53.25;;;;;-144.62;100.00;60556.56;5034327;28;46733;-79
2024/01/14 00:16:37;;;;;;;;;71.75;54.50;;;;;-144.62;100.00;60556.56;5037516;28;45447;-79
2024/01/14 00:19:06;;;;;;;;;69.00;55.00;;;;;-144.62;100.00;60556.56;5039848;28;45238;-79
2024/01/14 00:21:34;;;;;;;;;68.75;52.25;;;;;-144.62;100.00;60556.56;5033148;28;46444;-78
2024/01/14 00:23:59;;;;;;;;;69.50;54.75;;;;;-144.62;100.00;60556.56;5034299;28;49936;-79
2024/01/14 00:26:27;;;;;;;;;69.25;53.00;;;;;-144.62;100.00;60556.56;5038557;28;45253;-79
2024/01/14 00:28:58;;;;;;;;;72.25;53.25;;;;;-144.62;100.00;60556.56;5038756;27;45343;-78
2024/01/14 00:31:24;;;;;;;;;70.00;53.25;;;;;-144.62;100.00;60556.56;5035141;28;47725;-78
2024/01/14 00:33:50;;;;;;;;;72.75;55.00;;;;;-144.62;100.00;60556.56;5041867;28;45200;-78
2024/01/14 00:36:19;;;;;;;;;72.25;51.25;;;;;-144.62;100.00;60556.56;5044653;28;45476;-78
2024/01/14 00:38:45;;;;;;;;;72.25;52.50;;;;;-144.62;100.00;60556.56;5041280;27;45319;-78
2024/01/14 00:41:11;;;;;;;;;67.75;52.00;;;;;-144.62;100.00;60556.56;5044253;28;47538;-78
2024/01/14 00:43:37;;;;;;;;;71.75;53.50;;;;;-144.62;100.00;60556.56;5039050;27;45218;-78
2024/01/14 00:46:02;;;;;;;;;78.75;55.50;;;;;-144.62;100.00;60556.56;5035785;28;48409;-78
2024/01/14 00:48:28;;;;;;;;;76.00;56.50;;;;;-144.62;100.00;60556.56;5041279;28;45471;-78
2024/01/14 00:50:53;;;;;;;;;73.75;55.25;;;;;-144.62;100.00;60556.56;5038049;28;45496;-78
2024/01/14 00:53:19;;;;;;;;;66.25;49.75;;;;;-144.62;100.00;60556.56;5037897;27;45339;-79
2024/01/14 00:55:44;;;;;;;;;70.00;49.25;;;;;-144.62;100.00;60556.56;5039479;28;45147;-78
2024/01/14 00:58:10;;;;;;;;;78.00;54.25;;;;;-144.62;100.00;60556.56;5038545;28;45231;-78
2024/01/14 01:00:35;;;;;;;;;73.50;53.00;;;;;-144.62;100.00;60556.56;5038074;28;47961;-78
2024/01/14 01:03:00;;;;;;;;;66.00;49.25;;;;;-144.62;100.00;60556.56;5035518;28;45244;-78
2024/01/14 01:05:26;;;;;;;;;80.00;55.25;;;;;-144.62;100.00;60556.56;5038761;27;45497;-78
2024/01/14 01:07:51;;;;;;;;;81.25;60.25;;;;;-144.62;100.00;60556.56;5038175;27;45246;-78
2024/01/14 01:10:16;;;;;;;;;73.50;54.25;;;;;-144.62;100.00;60556.56;5039389;28;58555;-78
2024/01/14 01:12:41;;;;;;;;;64.25;49.75;;;;;-144.62;100.00;60556.56;5037889;27;45686;-78
2024/01/14 01:15:08;;;;;;;;;69.75;50.75;;;;;-144.62;100.00;60556.56;5040343;28;47851;-78
2024/01/14 01:17:34;;;;;;;;;67.00;51.25;;;;;-144.62;100.00;60556.56;5030083;28;45566;-78
2024/01/14 01:20:00;;;;;;;;;61.75;49.50;;;;;-144.62;100.00;60556.56;5040517;28;46571;-78
2024/01/14 01:22:25;;;;;;;;;73.25;50.50;;;;;-144.62;100.00;60556.56;5031993;28;45431;-78
2024/01/14 01:24:51;;;;;;;;;57.25;47.50;;;;;-144.62;100.00;60556.56;5042235;28;45316;-78
2024/01/14 01:27:16;;;;;;;;;73.00;54.25;;;;;-144.62;100.00;60556.56;5035456;28;45465;-78
2024/01/14 01:29:42;;;;;;;;;66.00;49.50;;;;;-144.62;100.00;60556.56;5037211;28;48033;-79
2024/01/14 01:32:08;;;;;;;;;66.00;46.25;;;;;-144.62;100.00;60556.56;5033665;28;45433;-78
2024/01/14 01:34:33;;;;;;;;;71.75;47.25;;;;;-144.62;100.00;60556.56;5041791;28;45489;-78
2024/01/14 01:36:58;;;;;;;;;62.50;45.50;;;;;-144.62;100.00;60556.56;5034859;28;45131;-78
2024/01/14 01:39:24;;;;;;;;;55.25;43.00;;;;;-144.62;100.00;60556.56;5041485;28;47275;-78
2024/01/14 01:41:51;;;;;;;;;63.50;47.00;;;;;-144.62;100.00;60556.56;5034369;28;45335;-78
2024/01/14 01:44:16;;;;;;;;;60.25;46.25;;;;;-144.62;100.00;60556.56;5040522;27;45316;-78
2024/01/14 01:46:42;;;;;;;;;65.50;50.75;;;;;-144.62;100.00;60556.56;5034996;27;45596;-78
2024/01/14 01:49:08;;;;;;;;;63.50;48.50;;;;;-144.62;100.00;60556.56;5041316;28;45569;-78
2024/01/14 01:51:34;;;;;;;;;58.75;46.25;;;;;-144.62;100.00;60556.56;5038199;27;45288;-78
2024/01/14 01:54:01;;;;;;;;;64.00;46.25;;;;;-144.62;100.00;60556.56;5041316;28;45373;-78
2024/01/14 01:56:26;;;;;;;;;72.50;49.25;;;;;-144.62;100.00;60556.56;5036527;28;45608;-78
2024/01/14 01:58:53;;;;;;;;;58.00;43.50;;;;;-144.62;100.00;60556.56;5037935;28;45439;-78
2024/01/14 02:01:21;;;;;;;;;53.00;44.50;;;;;-144.62;100.00;60556.56;5036523;27;45351;-78
2024/01/14 02:03:48;;;;;;;;;68.00;48.50;;;;;-144.62;100.00;60556.56;5038530;28;45174;-78
2024/01/14 02:06:15;;;;;;;;;70.25;50.00;;;;;-144.62;100.00;60556.56;5037817;28;46418;-78
2024/01/14 02:08:40;;;;;;;;;50.75;42.75;;;;;-144.62;100.00;60556.56;5034300;27;47063;-78
2024/01/14 02:11:06;;;;;;;;;64.50;46.50;;;;;-144.62;100.00;60556.56;5034572;28;45508;-78
2024/01/14 02:13:31;;;;;;;;;63.25;46.75;;;;;-144.62;100.00;60556.56;5040860;27;45410;-78
2024/01/14 02:15:57;;;;;;;;;66.25;48.75;;;;;-144.62;100.00;60556.56;5039114;28;45395;-78
2024/01/14 02:18:22;;;;;;;;;64.25;47.75;;;;;-144.62;100.00;60556.56;5028271;28;46886;-78
2024/01/14 02:20:47;;;;;;;;;64.00;50.75;;;;;-144.62;100.00;60556.56;5034881;28;54657;-78
2024/01/14 02:23:19;;;;;;;;;61.75;49.00;;;;;-144.62;100.00;60556.56;5034238;28;45358;-78
2024/01/14 02:25:45;;;;;;;;;69.50;50.75;;;;;-144.62;100.00;60556.56;5039063;28;45663;-78
2024/01/14 02:28:10;;;;;;;;;56.25;42.25;;;;;-144.62;100.00;60556.56;5025908;28;47033;-78
2024/01/14 02:30:36;;;;;;;;;60.75;45.75;;;;;-144.62;100.00;60556.56;5035300;27;45538;-78
2024/01/14 02:33:01;;;;;;;;;67.25;48.75;;;;;-144.62;100.00;60556.56;5035201;28;45394;-78
2024/01/14 02:35:26;;;;;;;;;69.50;49.75;;;;;-144.62;100.00;60556.56;5038605;28;46299;-78
2024/01/14 02:37:52;;;;;;;;;63.50;49.50;;;;;-144.62;100.00;60556.56;5035514;28;57246;-78
2024/01/14 02:40:17;;;;;;;;;66.50;46.25;;;;;-144.62;100.00;60556.56;5038225;28;45290;-78
2024/01/14 02:42:42;;;;;;;;;63.00;45.75;;;;;-144.62;100.00;60556.56;5035336;28;45258;-78
2024/01/14 02:45:08;;;;;;;;;69.50;44.25;;;;;-144.62;100.00;60556.56;5039683;28;45304;-78
2024/01/14 02:47:34;;;;;;;;;51.00;41.75;;;;;-144.62;100.00;60556.56;5033143;27;46111;-78
2024/01/14 02:49:59;;;;;;;;;57.75;42.75;;;;;-144.62;100.00;60556.56;5039104;28;45296;-78
2024/01/14 02:52:24;;;;;;;;;65.25;45.75;;;;;-144.62;100.00;60556.56;5032897;28;48301;-78
2024/01/14 02:54:50;;;;;;;;;65.75;48.75;;;;;-144.62;100.00;60556.56;5039804;27;45278;-78
2024/01/14 02:57:15;;;;;;;;;67.00;46.50;;;;;-144.62;100.00;60556.56;5032259;28;58848;-78
2024/01/14 02:59:40;;;;;;;;;67.75;48.75;;;;;-144.62;100.00;60556.56;5036390;28;45236;-78
2024/01/14 03:02:05;;;;;;;;;57.75;45.75;;;;;-144.62;100.00;60556.56;5036112;28;44745;-79
2024/01/14 03:04:31;;;;;;;;;62.25;45.00;;;;;-144.62;100.00;60556.56;5039591;27;45273;-79
2024/01/14 03:06:56;;;;;;;;;67.75;48.25;;;;;-144.62;100.00;60556.56;5036395;28;47202;-78
2024/01/14 03:09:22;;;;;;;;;62.75;49.25;;;;;-144.62;100.00;60556.56;5038453;27;45331;-79
2024/01/14 03:11:47;;;;;;;;;68.00;49.00;;;;;-144.62;100.00;60556.56;5037074;28;45489;-79
2024/01/14 03:14:13;;;;;;;;;66.50;45.00;;;;;-144.62;100.00;60556.56;5039253;28;45353;-78
2024/01/14 03:16:38;;;;;;;;;65.00;45.50;;;;;-144.62;100.00;60556.56;5033463;28;47037;-78
2024/01/14 03:19:03;;;;;;;;;69.75;46.00;;;;;-144.62;100.00;60556.56;5035022;28;45352;-78
2024/01/14 03:21:29;;;;;;;;;61.25;44.50;;;;;-144.62;100.00;60556.56;5037185;27;50431;-78
2024/01/14 03:23:54;;;;;;;;;60.00;46.00;;;;;-144.62;100.00;60556.56;5033774;28;45511;-78
2024/01/14 03:26:19;;;;;;;;;56.00;45.00;;;;;-144.62;100.00;60556.56;5032822;28;47123;-79
2024/01/14 03:28:45;;;;;;;;;60.50;45.00;;;;;-144.62;100.00;60556.56;5038050;28;45397;-78
2024/01/14 03:31:16;;;;;;;;;56.25;42.75;;;;;-144.62;100.00;60556.56;5037553;28;45367;-79
2024/01/14 03:33:42;;;;;;;;;63.25;46.00;;;;;-144.62;100.00;60556.56;5036099;28;45434;-79
2024/01/14 03:36:08;;;;;;;;;45.50;43.25;;;;;-144.62;100.00;60556.56;5034444;28;45443;-79
2024/01/14 03:38:34;;;;;;;;;49.75;43.00;;;;;-144.62;100.00;60556.56;5038990;28;45261;-78
2024/01/14 03:40:59;;;;;;;;;60.50;45.50;;;;;-144.62;100.00;60556.56;5036053;28;45304;-78
2024/01/14 03:43:24;;;;;;;;;63.25;44.75;;;;;-144.62;100.00;60556.56;5036494;27;45250;-78
2024/01/14 03:45:49;;;;;;;;;51.75;40.75;;;;;-144.62;100.00;60556.56;5036537;28;46621;-78
2024/01/14 03:48:15;;;;;;;;;59.75;45.00;;;;;-144.62;100.00;60556.56;5037909;28;45258;-78
2024/01/14 03:50:40;;;;;;;;;58.25;45.00;;;;;-144.62;100.00;60556.56;5036835;28;45428;-78
2024/01/14 03:53:07;;;;;;;;;64.00;46.50;;;;;-144.62;100.00;60556.56;5035788;28;45485;-79
2024/01/14 03:55:32;;;;;;;;;56.50;42.75;;;;;-144.62;100.00;60556.56;5037507;28;46349;-78
2024/01/14 03:57:58;;;;;;;;;51.00;41.50;;;;;-144.62;100.00;60556.56;5032255;28;45381;-78
2024/01/14 04:00:23;;;;;;;;;61.25;42.75;;;;;-144.62;100.00;60556.56;5038419;28;45313;-78
2024/01/14 04:02:49;;;;;;;;;51.00;41.00;;;;;-144.62;100.00;60556.56;5034150;28;45465;-78
2024/01/14 04:05:14;;;;;;;;;61.75;43.50;;;;;-144.62;100.00;60556.56;5038810;28;45306;-78
2024/01/14 04:07:39;;;;;;;;;53.75;42.75;;;;;-144.62;100.00;60556.56;5033925;28;45308;-78
2024/01/14 04:10:05;;;;;;;;;53.00;42.00;;;;;-144.62;100.00;60556.56;5027825;28;45282;-78
2024/01/14 04:12:30;;;;;;;;;55.25;42.75;;;;;-144.62;100.00;60556.56;5036077;28;45365;-78
2024/01/14 04:14:55;;;;;;;;;53.75;39.75;;;;;-144.62;100.00;60556.56;5037473;28;46625;-78
2024/01/14 04:17:21;;;;;;;;;53.00;44.25;;;;;-144.62;100.00;60556.56;5028622;28;45225;-78
2024/01/14 04:19:46;;;;;;;;;45.00;38.25;;;;;-144.62;100.00;60556.56;5040023;28;45155;-78
2024/01/14 04:22:12;;;;;;;;;51.00;35.75;;;;;-144.62;100.00;60556.56;5030927;28;45361;-78
2024/01/14 04:24:38;;;;;;;;;47.00;38.50;;;;;-144.62;100.00;60556.56;5037942;28;47965;-78
2024/01/14 04:27:04;;;;;;;;;60.50;43.50;;;;;-144.62;100.00;60556.56;5031727;28;45223;-78
2024/01/14 04:29:29;;;;;;;;;54.00;42.50;;;;;-144.62;100.00;60556.56;5039495;28;45370;-78
2024/01/14 04:31:54;;;;;;;;;51.00;42.25;;;;;-144.62;100.00;60556.56;5030457;27;45449;-78
2024/01/14 04:34:19;;;;;;;;;66.25;42.75;;;;;-144.62;100.00;60556.56;5021547;28;48342;-79
2024/01/14 04:36:45;;;;;;;;;58.50;39.50;;;;;-144.62;100.00;60556.56;5026247;28;45771;-78
2024/01/14 04:39:10;;;;;;;;;56.50;45.50;;;;;-144.62;100.00;60556.56;5039589;27;45471;-78
2024/01/14 04:41:35;;;;;;;;;67.50;44.25;;;;;-144.62;100.00;60556.56;5032673;28;45462;-78
2024/01/14 04:44:01;;;;;;;;;65.75;50.25;;;;;-144.62;100.00;60556.56;5037435;28;52308;-78
2024/01/14 04:46:27;;;;;;;;;56.75;39.50;;;;;-144.62;100.00;60556.56;5032279;28;45508;-78
2024/01/14 04:48:52;;;;;;;;;59.75;44.75;;;;;-144.62;100.00;60556.56;5039094;28;45213;-78
2024/01/14 04:51:18;;;;;;;;;58.50;44.00;;;;;-144.62;100.00;60556.56;5031183;28;45592;-78
2024/01/14 04:53:44;;;;;;;;;58.50;46.00;;;;;-144.62;100.00;60556.56;5037525;28;45488;-78
2024/01/14 04:56:09;;;;;;;;;60.00;46.25;;;;;-144.62;100.00;60556.56;5031446;28;45394;-78
2024/01/14 04:58:35;;;;;;;;;71.00;45.25;;;;;-144.62;100.00;60556.56;5034792;28;45422;-78
2024/01/14 05:01:00;;;;;;;;;63.50;49.00;;;;;-144.62;100.00;60556.56;5034647;28;45292;-78
2024/01/14 05:03:25;;;;;;;;;60.25;43.75;;;;;-144.62;100.00;60556.56;5035250;28;53223;-78
2024/01/14 05:05:51;;;;;;;;;39.25;29.75;;;;;-144.62;100.00;60556.56;5034930;28;45374;-78
2024/01/14 05:08:16;;;;;;;;;39.50;33.25;;;;;-144.62;100.00;60556.56;5036114;27;45370;-78
2024/01/14 05:10:42;;;;;;;;;66.50;49.00;;;;;-144.62;100.00;60556.56;5036228;28;45463;-78
2024/01/14 05:13:07;;;;;;;;;53.75;40.50;;;;;-144.62;100.00;60556.56;5037843;28;48621;-78
2024/01/14 05:15:32;;;;;;;;;59.50;42.50;;;;;-144.62;100.00;60556.56;5038372;28;45292;-78
2024/01/14 05:17:58;;;;;;;;;57.25;44.00;;;;;-144.62;100.00;60556.56;5033020;28;45353;-78
2024/01/14 05:20:23;;;;;;;;;50.25;41.75;;;;;-144.62;100.00;60556.56;5040685;28;45664;-78
2024/01/14 05:22:48;;;;;;;;;58.75;42.25;;;;;-144.62;100.00;60556.56;5032525;27;51114;-78
2024/01/14 05:25:14;;;;;;;;;55.75;45.25;;;;;-144.62;100.00;60556.56;5040743;28;46531;-78
2024/01/14 05:27:39;;;;;;;;;61.00;41.50;;;;;-144.62;100.00;60556.56;5036371;27;46431;-78
2024/01/14 05:30:05;;;;;;;;;63.25;43.00;;;;;-144.62;100.00;60556.56;5040290;28;45481;-78
2024/01/14 05:32:30;;;;;;;;;59.00;45.75;;;;;-144.62;100.00;60556.56;5033827;28;46202;-78
2024/01/14 05:34:55;;;;;;;;;61.00;41.75;;;;;-144.62;100.00;60556.56;5041755;28;45431;-78
2024/01/14 05:37:21;;;;;;;;;63.50;45.75;;;;;-144.62;100.00;60556.56;5035108;28;45454;-78
2024/01/14 05:39:46;;;;;;;;;65.25;46.75;;;;;-144.62;100.00;60556.56;5042362;28;45404;-78
2024/01/14 05:42:11;;;;;;;;;61.25;47.00;;;;;-144.62;100.00;60556.56;5034370;28;45296;-78
2024/01/14 05:44:37;;;;;;;;;69.00;49.50;;;;;-144.62;100.00;60556.56;5041363;28;45190;-78
2024/01/14 05:47:02;;;;;;;;;66.25;49.25;;;;;-144.62;100.00;60556.56;5034658;27;50801;-78
2024/01/14 05:49:27;;;;;;;;;57.00;45.75;;;;;-144.62;100.00;60556.56;5041961;28;45232;-78
2024/01/14 05:51:53;;;;;;;;;55.50;46.25;;;;;-144.62;100.00;60556.56;5034481;27;45963;-78
2024/01/14 05:54:18;;;;;;;;;66.00;49.00;;;;;-144.62;100.00;60556.56;5039527;28;45375;-78
2024/01/14 05:56:44;;;;;;;;;67.50;47.25;;;;;-144.62;100.00;60556.56;5035454;28;45426;-78
2024/01/14 05:59:09;;;;;;;;;67.75;49.75;;;;;-144.62;100.00;60556.56;5038413;28;45367;-78
2024/01/14 06:01:34;;;;;;;;;58.00;35.75;;;;;-144.62;100.00;60556.56;5036640;28;46707;-78
2024/01/14 06:03:59;;;;;;;;;52.75;43.50;;;;;-144.62;100.00;60556.56;5037639;28;45315;-78
2024/01/14 06:06:25;;;;;;;;;51.25;43.00;;;;;-144.62;100.00;60556.56;5037362;28;48255;-78
2024/01/14 06:08:50;;;;;;;;;51.00;40.50;;;;;-144.62;100.00;60556.56;5038987;27;45594;-78
2024/01/14 06:11:16;;;;;;;;;60.00;46.75;;;;;-144.62;100.00;60556.56;5038723;28;45314;-78
2024/01/14 06:13:42;;;;;;;;;59.50;46.25;;;;;-144.62;100.00;60556.56;5040513;28;45444;-78
2024/01/14 06:16:11;;;;;;;;;62.00;42.25;;;;;-144.62;100.00;60556.56;5038522;28;45318;-78
2024/01/14 06:18:39;;;;;;;;;64.00;45.50;;;;;-144.62;100.00;60556.56;5032518;27;45616;-78
2024/01/14 06:21:04;;;;;;;;;50.00;41.50;;;;;-144.62;100.00;60556.56;5036476;28;47857;-78
2024/01/14 06:23:29;;;;;;;;;58.25;45.75;;;;;-144.62;100.00;60556.56;5033658;27;45164;-78
2024/01/14 06:25:55;;;;;;;;;64.75;45.50;;;;;-144.62;100.00;60556.56;5043348;28;45376;-79
2024/01/14 06:28:21;;;;;;;;;54.25;42.25;;;;;-144.62;100.00;60556.56;5038324;28;45499;-78
2024/01/14 06:30:46;;;;;;;;;66.50;42.25;;;;;-144.62;100.00;60556.56;5037301;27;47028;-78
2024/01/14 06:33:12;;;;;;;;;56.50;47.25;;;;;-144.62;100.00;60556.56;5035579;28;45296;-78
2024/01/14 06:35:37;;;;;;;;;56.75;43.00;;;;;-144.62;100.00;60556.56;5038756;28;45584;-78
2024/01/14 06:38:03;;;;;;;;;60.50;44.75;;;;;-144.62;100.00;60556.56;5035507;28;45551;-78
2024/01/14 06:40:28;;;;;;;;;66.25;46.25;;;;;-144.62;100.00;60556.56;5038323;27;45277;-78
2024/01/14 06:42:54;;;;;;;;;66.00;46.25;;;;;-144.62;100.00;60556.56;5035981;28;45350;-78
2024/01/14 06:45:19;;;;;;;;;59.50;42.50;;;;;-144.62;100.00;60556.56;5035822;28;45336;-78
2024/01/14 06:47:45;;;;;;;;;50.50;44.25;;;;;-144.62;100.00;60556.56;5033999;28;45471;-78
2024/01/14 06:50:10;;;;;;;;;60.25;43.50;;;;;-144.62;100.00;60556.56;5040046;28;45489;-77
2024/01/14 06:52:39;;;;;;;;;63.00;47.75;;;;;-144.62;100.00;60556.56;5034750;28;45321;-78
2024/01/14 06:55:05;;;;;;;;;65.25;49.25;;;;;-144.62;100.00;60556.56;5039656;28;45319;-78
2024/01/14 06:57:31;;;;;;;;;62.75;43.00;;;;;-144.62;100.00;60556.56;5033361;28;45412;-78
2024/01/14 06:59:59;;;;;;;;;55.50;43.00;;;;;-144.62;100.00;60556.56;5039444;28;46170;-78
2024/01/14 07:02:24;;;;;;;;;59.25;45.75;;;;;-144.62;100.00;60556.56;5035673;28;45749;-77
2024/01/14 07:04:49;;;;;;;;;66.00;43.75;;;;;-144.62;100.00;60556.56;5038668;27;45373;-77
2024/01/14 07:07:15;;;;;;;;;54.00;45.50;;;;;-144.62;100.00;60556.56;5037573;28;45569;-77
2024/01/14 07:09:40;;;;;;;;;53.00;43.00;;;;;-144.62;100.00;60556.56;5039127;27;47907;-78
2024/01/14 07:12:06;;;;;;;;;61.50;46.00;;;;;-144.62;100.00;60556.56;5036702;28;45316;-77
2024/01/14 07:14:31;;;;;;;;;68.00;46.75;;;;;-144.62;100.00;60556.56;5040300;28;45320;-78
2024/01/14 07:16:56;;;;;;;;;66.25;48.50;;;;;-144.62;100.00;60556.56;5033037;28;45554;-77
2024/01/14 07:19:22;;;;;;;;;66.00;46.25;;;;;-144.62;100.00;60556.56;5038047;28;46423;-77
2024/01/14 07:21:47;;;;;;;;;65.25;50.00;;;;;-144.62;100.00;60556.56;5034768;28;45306;-77
2024/01/14 07:24:12;;;;;;;;;67.25;51.00;;;;;-144.62;100.00;60556.56;5037326;28;58746;-78
2024/01/14 07:26:38;;;;;;;;;64.25;50.00;;;;;-144.62;100.00;60556.56;5034867;28;45458;-78
2024/01/14 07:29:03;;;;;;;;;72.75;54.50;;;;;-144.62;100.00;60556.56;5040030;28;45522;-78
2024/01/14 07:31:30;;;;;;;;;65.25;47.00;;;;;-144.62;100.00;60556.56;5035135;28;45516;-78
2024/01/14 07:33:56;;;;;;;;;72.75;45.25;;;;;-144.62;100.00;60556.56;5037415;28;45219;-78
2024/01/14 07:36:21;;;;;;;;;63.25;46.25;;;;;-144.62;100.00;60556.56;5032914;27;45479;-78
2024/01/14 07:38:47;;;;;;;;;67.25;47.50;;;;;-144.62;100.00;60556.56;5039857;28;46765;-78
2024/01/14 07:41:13;;;;;;;;;63.50;51.50;;;;;-144.62;100.00;60556.56;5034282;28;45249;-78
2024/01/14 07:43:39;;;;;;;;;70.25;53.75;;;;;-144.62;100.00;60556.56;5034162;28;45414;-78
2024/01/14 07:46:06;;;;;;;;;64.75;48.50;;;;;-144.62;100.00;60556.56;5027096;28;45590;-78
2024/01/14 07:48:32;;;;;;;;;60.25;45.50;;;;;-144.62;100.00;60556.56;5038107;28;45209;-78
2024/01/14 07:50:57;;;;;;;;;75.50;50.50;;;;;-144.62;100.00;60556.56;5036384;28;45547;-78
2024/01/14 07:53:22;;;;;;;;;67.75;47.00;;;;;-144.62;100.00;60556.56;5033162;28;45351;-78
2024/01/14 07:55:49;;;;;;;;;67.50;47.50;;;;;-144.62;100.00;60556.56;5029059;27;45423;-78
2024/01/14 07:58:14;;;;;;;;;67.25;46.75;;;;;-144.62;100.00;60556.56;5046941;28;46875;-78
2024/01/14 08:00:39;;;;;;;;;62.00;48.00;;;;;-144.62;100.00;60556.56;5028018;28;45908;-78
2024/01/14 08:03:05;;;;;;;;;68.75;46.25;;;;;-144.62;100.00;60556.56;5033150;28;45415;-78
2024/01/14 08:05:30;;;;;;;;;50.25;43.00;;;;;-144.62;100.00;60556.56;5038867;28;45248;-78
2024/01/14 08:07:55;;;;;;;;;59.25;44.75;;;;;-144.62;100.00;60556.56;5035611;27;45357;-78
2024/01/14 08:10:21;;;;;;;;;66.25;48.25;;;;;-144.62;100.00;60556.56;5038353;28;56080;-78
2024/01/14 08:12:47;;;;;;;;;52.25;42.00;;;;;-144.62;100.00;60556.56;5037593;27;45511;-77
2024/01/14 08:15:12;;;;;;;;;70.25;52.50;;;;;-144.62;100.00;60556.56;5038561;27;45544;-77
2024/01/14 08:17:37;;;;;;;;;71.50;50.75;;;;;-144.62;100.00;60556.56;5027590;28;47107;-77
2024/01/14 08:20:05;;;;;;;;;75.75;51.00;;;;;-144.62;100.00;60556.56;5034517;28;45668;-77
2024/01/14 08:22:30;;;;;;;;;72.75;50.50;;;;;-144.62;100.00;60556.56;5027972;28;45701;-77
2024/01/14 08:24:56;;;;;;;;;75.00;52.25;;;;;-144.62;100.00;60556.56;5039509;28;45313;-77
2024/01/14 08:27:21;;;;;;;;;66.25;50.25;;;;;-144.62;100.00;60556.56;5031215;27;47583;-78
2024/01/14 08:29:46;;;;;;;;;65.25;47.25;;;;;-144.62;100.00;60556.56;5038810;28;45431;-77
2024/01/14 08:32:12;;;;;;;;;74.00;49.00;;;;;-144.62;100.00;60556.56;5031769;27;45446;-78
2024/01/14 08:34:37;;;;;;;;;77.75;53.25;;;;;-144.62;100.00;60556.56;5039656;28;45523;-78
2024/01/14 08:37:02;;;;;;;;;63.25;47.50;;;;;-144.62;100.00;60556.56;5032623;27;46183;-78
2024/01/14 08:39:28;;;;;;;;;70.00;50.00;;;;;-144.62;100.00;60556.56;5039137;28;45192;-78
2024/01/14 08:41:53;;;;;;;;;39.25;31.50;;;;;-144.62;100.00;60556.56;5032961;27;45857;-78
2024/01/14 08:44:18;;;;;;;;;65.50;48.00;;;;;-144.62;100.00;60556.56;5039680;28;45212;-79
2024/01/14 08:46:47;;;;;;;;;67.25;49.75;;;;;-144.62;100.00;60556.56;5033958;28;56399;-78
2024/01/14 08:49:13;;;;;;;;;68.75;50.00;;;;;-144.62;100.00;60556.56;5040624;28;45443;-78
2024/01/14 08:51:40;;;;;;;;;69.50;52.00;;;;;-144.62;100.00;60556.56;5034381;28;45454;-78
2024/01/14 08:54:05;;;;;;;;;66.25;49.75;;;;;-144.62;100.00;60556.56;5038436;28;45636;-78
2024/01/14 08:56:30;;;;;;;;;67.75;48.75;;;;;-144.62;100.00;60556.56;5034724;28;47639;-78
2024/01/14 08:58:57;;;;;;;;;65.50;46.25;;;;;-144.62;100.00;60556.56;5033918;27;46372;-78
2024/01/14 09:01:22;;;;;;;;;65.50;50.50;;;;;-144.62;100.00;60556.56;5034803;28;45396;-78
2024/01/14 09:03:48;;;;;;;;;76.00;52.00;;;;;-144.62;100.00;60556.56;5040327;28;45381;-78
2024/01/14 09:06:13;;;;;;;;;79.75;52.00;;;;;-144.62;100.00;60556.56;5036986;28;47227;-78
2024/01/14 09:08:39;;;;;;;;;72.25;50.00;;;;;-144.62;100.00;60556.56;5041116;27;45281;-78
2024/01/14 09:11:04;;;;;;;;;70.00;47.00;;;;;-144.62;100.00;60556.56;5033569;28;46281;-78
2024/01/14 09:13:30;;;;;;;;;59.00;46.25;;;;;-144.62;100.00;60556.56;5041075;28;45300;-77
2024/01/14 09:15:56;;;;;;;;;65.25;46.50;;;;;-144.62;100.00;60556.56;5039252;28;47401;-77
2024/01/14 09:18:21;;;;;;;;;69.50;51.00;;;;;-144.62;100.00;60556.56;5039739;28;45269;-78
2024/01/14 09:20:46;;;;;;;;;69.50;50.75;;;;;-144.62;100.00;60556.56;5039953;28;45245;-77
2024/01/14 09:23:12;;;;;;;;;66.25;48.00;;;;;-144.62;100.00;60556.56;5039252;28;45401;-77
2024/01/14 09:25:37;;;;;;;;;63.50;47.00;;;;;-144.62;100.00;60556.56;5039298;28;45530;-77
2024/01/14 09:28:03;;;;;;;;;70.00;49.50;;;;;-144.62;100.00;60556.56;5037244;27;57461;-77
2024/01/14 09:30:28;;;;;;;;;63.25;50.75;;;;;-144.62;100.00;60556.56;5039717;28;45241;-77
2024/01/14 09:32:53;;;;;;;;;65.50;47.25;;;;;-144.62;100.00;60556.56;5037256;27;45464;-77
2024/01/14 09:35:19;;;;;;;;;68.75;49.00;;;;;-144.62;100.00;60556.56;5040642;28;46592;-76
2024/01/14 09:37:44;;;;;;;;;74.50;49.25;;;;;-144.62;100.00;60556.56;5035816;28;51730;-79
2024/01/14 09:40:10;;;;;;;;;66.25;51.00;;;;;-144.62;100.00;60556.56;5041649;28;47910;-76
2024/01/14 09:42:38;;;;;;;;;66.75;51.00;;;;;-144.62;100.00;60556.56;5035363;28;45340;-77
2024/01/14 09:45:05;;;;;;;;;67.25;51.00;;;;;-144.62;100.00;60556.56;5041333;28;45618;-78
2024/01/14 09:47:32;;;;;;;;;65.25;51.00;;;;;-144.62;100.00;60556.56;5037229;28;45356;-78
2024/01/14 09:49:59;;;;;;;;;68.50;53.25;;;;;-144.62;100.00;60556.56;5039923;28;45431;-78
2024/01/14 09:52:25;;;;;;;;;68.25;50.25;;;;;-144.62;100.00;60556.56;5034900;28;45433;-78
2024/01/14 09:54:51;;;;;;;;;62.50;48.75;;;;;-144.62;100.00;60556.56;5040951;28;46111;-78
2024/01/14 09:57:22;;;;;;;;;60.25;48.75;;;;;-144.62;100.00;60556.56;5035318;28;45454;-77
2024/01/14 09:59:52;;;;;;;;;65.75;48.25;;;;;-144.62;100.00;60556.56;5041355;28;45350;-78
2024/01/14 10:02:18;;;;;;;;;76.00;50.75;;;;;-144.62;100.00;60556.56;5038090;28;45432;-77
2024/01/14 10:04:44;;;;;;;;;63.00;48.25;;;;;-144.62;100.00;60556.56;5037049;28;48035;-77
2024/01/14 10:07:10;;;;;;;;;67.75;51.50;;;;;-144.62;100.00;60556.56;5033405;28;45318;-79
2024/01/14 10:09:39;;;;;;;;;70.00;53.75;;;;;-144.62;100.00;60556.56;5038444;27;45320;-78
2024/01/14 10:12:07;;;;;;;;;68.75;49.50;;;;;-144.62;100.00;60556.56;5032511;28;45580;-78
2024/01/14 10:14:34;;;;;;;;;71.75;52.25;;;;;-144.62;100.00;60556.56;5038816;28;45531;-77
2024/01/14 10:17:00;;;;;;;;;78.50;54.50;;;;;-144.62;100.00;60556.56;5031766;28;45320;-77
2024/01/14 10:19:26;;;;;;;;;69.00;56.25;;;;;-144.62;100.00;60556.56;5038915;28;45230;-78
2024/01/14 10:21:53;;;;;;;;;61.25;46.00;;;;;-144.62;100.00;60556.56;5035373;28;45610;-77
2024/01/14 10:24:18;;;;;;;;;70.00;51.50;;;;;-144.62;100.00;60556.56;5040636;28;45341;-77
2024/01/14 10:26:43;;;;;;;;;64.00;50.00;;;;;-144.62;100.00;60556.56;5032545;28;45380;-77
2024/01/14 10:29:09;;;;;;;;;70.50;48.25;;;;;-144.62;100.00;60556.56;5038595;28;45323;-78
2024/01/14 10:31:35;;;;;;;;;64.00;50.00;;;;;-144.62;100.00;60556.56;5034764;28;45341;-77
2024/01/14 10:34:02;;;;;;;;;67.50;49.25;;;;;-144.62;100.00;60556.56;5040151;28;45645;-77
2024/01/14 10:36:31;;;;;;;;;70.50;51.75;;;;;-144.62;100.00;60556.56;5034002;28;45421;-77
2024/01/14 10:38:57;;;;;;;;;67.75;50.00;;;;;-144.62;100.00;60556.56;5040955;28;45420;-78
2024/01/14 10:41:23;;;;;;;;;70.50;53.25;;;;;-144.62;100.00;60556.56;5034382;28;45455;-78
2024/01/14 10:43:49;;;;;;;;;71.75;52.50;;;;;-144.62;100.00;60556.56;5040412;28;45395;-78
2024/01/14 10:46:15;;;;;;;;;75.00;55.75;;;;;-144.62;100.00;60556.56;5033350;28;45801;-80
2024/01/14 10:48:41;;;;;;;;;76.50;54.50;;;;;-144.62;100.00;60556.56;5039903;28;45545;-78